createdAt,value
2023-01-20T00:05:15.939Z,39.80
2023-01-20T00:11:25.532Z,39.60
2023-01-20T00:17:36.735Z,40.50
2023-01-20T00:30:00.655Z,38.80
2023-01-20T00:36:09.604Z,39.30
2023-01-20T00:42:21.220Z,40.00
2023-01-20T00:48:29.004Z,40.10
2023-01-20T00:54:38.108Z,39.00
2023-01-20T01:00:47.395Z,38.50
2023-01-20T01:06:56.612Z,38.80
2023-01-20T01:13:09.223Z,39.20
2023-01-20T01:19:19.545Z,39.30
2023-01-20T01:25:31.853Z,39.40
2023-01-20T01:31:45.198Z,39.30
2023-01-20T01:37:56.322Z,39.40
2023-01-20T01:44:10.318Z,39.50
2023-01-20T01:50:21.807Z,39.50
2023-01-20T01:56:34.850Z,39.80
2023-01-20T02:02:48.038Z,40.10
2023-01-20T02:08:56.900Z,40.60
2023-01-20T02:15:10.658Z,40.60
2023-01-20T02:21:53.100Z,40.40
2023-01-20T02:28:51.456Z,40.80
2023-01-20T02:35:03.549Z,40.70
2023-01-20T02:41:17.957Z,40.90
2023-01-20T02:47:31.489Z,40.70
2023-01-20T02:53:44.123Z,40.60
2023-01-20T02:59:58.281Z,40.60
2023-01-20T03:06:10.542Z,40.30
2023-01-20T03:12:24.138Z,40.50
2023-01-20T03:18:33.834Z,40.10
2023-01-20T03:24:44.482Z,40.10
2023-01-20T03:31:00.094Z,40.20
2023-01-20T03:37:10.958Z,39.90
2023-01-20T03:43:24.807Z,40.00
2023-01-20T03:49:37.549Z,39.70
2023-01-20T03:55:49.121Z,39.90
2023-01-20T04:02:00.384Z,39.90
2023-01-20T04:08:14.623Z,39.90
2023-01-20T04:14:24.385Z,40.10
2023-01-20T04:20:36.414Z,41.20
2023-01-20T04:26:45.018Z,41.80
2023-01-20T04:32:55.841Z,41.40
2023-01-20T04:39:05.956Z,41.30
2023-01-20T04:45:19.118Z,40.90
2023-01-20T04:51:32.984Z,40.80
2023-01-20T04:57:48.033Z,40.90
2023-01-20T05:03:58.929Z,40.50
2023-01-20T05:10:12.956Z,40.40
2023-01-20T05:16:23.920Z,40.30
2023-01-20T05:22:34.395Z,40.10
2023-01-20T05:28:45.834Z,40.00
2023-01-20T05:34:55.459Z,40.00
2023-01-20T05:41:07.766Z,40.10
2023-01-20T05:47:19.564Z,40.10
2023-01-20T05:53:30.706Z,40.10
2023-01-20T05:59:45.076Z,40.10
2023-01-20T06:05:53.441Z,39.90
2023-01-20T06:12:04.601Z,40.00
2023-01-20T06:18:17.768Z,39.80
2023-01-20T06:24:27.649Z,39.80
2023-01-20T06:30:39.339Z,39.80
2023-01-20T06:36:51.099Z,39.70
2023-01-20T06:43:03.731Z,39.80
2023-01-20T06:49:14.341Z,39.60
2023-01-20T06:55:23.053Z,39.70
2023-01-20T07:01:34.955Z,39.60
2023-01-20T07:07:43.248Z,39.60
2023-01-20T07:13:58.498Z,39.60
2023-01-20T07:20:14.600Z,40.10
2023-01-20T07:26:25.943Z,39.60
2023-01-20T07:32:37.621Z,39.50
2023-01-20T07:38:45.652Z,39.50
2023-01-20T07:45:00.909Z,39.50
2023-01-20T07:51:14.313Z,39.30
2023-01-20T07:57:23.435Z,39.50
2023-01-20T08:03:35.442Z,39.40
2023-01-20T08:09:47.881Z,39.40
2023-01-20T08:16:00.890Z,39.50
2023-01-20T08:22:14.501Z,39.30
2023-01-20T08:28:26.699Z,39.50
2023-01-20T08:34:37.195Z,39.30
2023-01-20T08:40:50.280Z,39.40
2023-01-20T08:47:03.576Z,39.30
2023-01-20T08:53:17.133Z,39.30
2023-01-20T08:59:29.910Z,39.40
2023-01-20T09:05:44.894Z,39.40
2023-01-20T09:11:57.291Z,39.30
2023-01-20T09:18:07.047Z,39.40
2023-01-20T09:24:19.077Z,39.40
2023-01-20T09:30:28.879Z,38.90
2023-01-20T09:36:39.276Z,39.00
2023-01-20T09:43:12.293Z,39.20
2023-01-20T09:49:42.751Z,39.30
2023-01-20T09:55:53.175Z,39.40
2023-01-20T10:02:08.809Z,39.40
2023-01-20T10:08:23.482Z,39.60
2023-01-20T10:14:37.182Z,39.30
2023-01-20T10:20:47.119Z,39.00
2023-01-20T10:26:58.750Z,39.30
2023-01-20T10:33:12.757Z,39.40
2023-01-20T10:39:29.710Z,39.50
2023-01-20T10:45:48.146Z,39.60
2023-01-20T10:51:57.685Z,39.50
2023-01-20T10:58:08.418Z,39.00
2023-01-20T11:04:37.893Z,39.20
2023-01-20T11:10:48.682Z,39.40
2023-01-20T11:16:59.539Z,39.40
2023-01-20T11:23:13.022Z,39.70
2023-01-20T11:29:35.737Z,39.50
2023-01-20T11:35:48.419Z,39.10
2023-01-20T11:42:18.404Z,39.30
2023-01-20T11:48:29.532Z,39.50
2023-01-20T11:54:43.107Z,39.50
2023-01-20T12:00:59.503Z,39.60
2023-01-20T12:07:12.730Z,39.70
2023-01-20T12:13:24.428Z,39.90
2023-01-20T12:19:39.139Z,39.60
2023-01-20T12:25:52.900Z,39.60
2023-01-20T12:32:02.626Z,39.60
2023-01-20T12:38:13.491Z,39.60
2023-01-20T12:44:26.485Z,39.50
2023-01-20T12:50:42.344Z,39.50
2023-01-20T12:56:55.768Z,39.40
2023-01-20T13:04:06.142Z,39.00
2023-01-20T13:10:38.941Z,39.10
2023-01-20T13:16:52.585Z,40.40
2023-01-20T13:23:05.004Z,40.30
2023-01-20T13:29:27.325Z,40.50
2023-01-20T13:35:50.433Z,39.60
2023-01-20T13:42:03.621Z,39.80
2023-01-20T13:48:29.556Z,40.30
2023-01-20T13:54:52.136Z,40.70
2023-01-20T14:01:03.561Z,41.40
2023-01-20T14:07:30.420Z,41.20
2023-01-20T14:13:43.197Z,40.40
2023-01-20T14:19:53.211Z,40.40
2023-01-20T14:26:09.852Z,40.90
2023-01-20T14:32:29.231Z,41.10
2023-01-20T14:38:56.402Z,40.10
2023-01-20T14:44:56.211Z,40.40
2023-01-20T14:51:09.929Z,40.80
2023-01-20T14:57:49.137Z,43.40
2023-01-20T15:04:03.901Z,40.90
2023-01-20T15:10:19.726Z,40.50
2023-01-20T15:16:33.695Z,40.70
2023-01-20T15:22:46.575Z,41.10
2023-01-20T15:28:59.436Z,40.90
2023-01-20T15:41:24.977Z,40.80
2023-01-20T15:47:35.287Z,40.30
2023-01-20T15:53:46.113Z,40.70
2023-01-20T15:59:57.787Z,40.30
2023-01-20T16:06:10.916Z,40.10
2023-01-20T16:12:22.085Z,40.30
2023-01-20T16:18:31.017Z,40.50
2023-01-20T16:24:44.313Z,40.60
2023-01-20T16:30:56.757Z,40.30
2023-01-20T16:37:07.955Z,40.00
2023-01-20T16:43:21.083Z,39.90
2023-01-20T16:49:33.075Z,40.00
2023-01-20T16:55:41.319Z,40.20
2023-01-20T17:01:53.104Z,40.40
2023-01-20T17:08:03.338Z,40.90
2023-01-20T17:14:15.762Z,40.60
2023-01-20T17:20:27.084Z,39.70
2023-01-20T17:26:38.335Z,39.80
2023-01-20T17:32:52.531Z,40.30
2023-01-20T17:39:05.027Z,40.60
2023-01-20T17:45:18.196Z,41.40
2023-01-20T17:51:26.385Z,41.60
2023-01-20T17:57:40.377Z,41.40
2023-01-20T18:03:52.807Z,41.40
2023-01-20T18:10:05.106Z,40.50
2023-01-20T18:16:19.622Z,40.30
2023-01-20T18:22:29.636Z,40.70
2023-01-20T18:28:42.136Z,40.90
2023-01-20T18:34:54.604Z,40.90
2023-01-20T18:41:03.665Z,41.10
2023-01-20T18:47:12.834Z,40.00
2023-01-20T18:53:24.792Z,39.70
2023-01-20T18:59:33.252Z,39.90
2023-01-20T19:05:44.477Z,39.90
2023-01-20T19:11:54.576Z,40.20
2023-01-20T19:18:08.044Z,40.00
2023-01-20T19:24:20.762Z,39.50
2023-01-20T19:30:36.578Z,39.80
2023-01-20T19:36:45.020Z,40.10
2023-01-20T19:42:56.921Z,40.50
2023-01-20T19:49:09.056Z,40.20
2023-01-20T19:55:19.397Z,39.30
2023-01-20T20:01:31.707Z,39.30
2023-01-20T20:07:41.245Z,39.30
2023-01-20T20:13:50.378Z,39.50
2023-01-20T20:20:03.063Z,39.10
2023-01-20T20:26:15.547Z,38.90
2023-01-20T20:32:27.336Z,38.20
2023-01-20T20:38:37.860Z,38.30
2023-01-20T20:44:47.461Z,38.30
2023-01-20T20:50:59.505Z,38.50
2023-01-20T20:57:11.906Z,38.60
2023-01-20T21:03:19.216Z,38.80
2023-01-20T21:09:30.386Z,38.50
2023-01-20T21:15:43.840Z,37.60
2023-01-20T21:21:51.301Z,37.80
2023-01-20T21:27:59.488Z,37.90
2023-01-20T21:34:11.630Z,38.30
2023-01-20T21:40:21.406Z,38.20
2023-01-20T21:46:31.549Z,37.50
2023-01-20T21:52:45.976Z,37.60
2023-01-20T21:58:55.813Z,37.70
2023-01-20T22:05:07.196Z,38.00
2023-01-20T22:11:19.502Z,37.30
2023-01-20T22:17:29.607Z,37.30
2023-01-20T22:23:37.005Z,37.40
2023-01-20T22:29:46.298Z,37.70
2023-01-20T22:35:57.012Z,37.50
2023-01-20T22:42:09.698Z,36.90
2023-01-20T22:48:20.341Z,37.00
2023-01-20T22:54:30.318Z,37.30
2023-01-20T23:00:40.347Z,37.70
2023-01-20T23:06:47.824Z,37.50
2023-01-20T23:13:00.568Z,36.90
2023-01-20T23:19:09.863Z,37.10
2023-01-20T23:25:20.758Z,37.40
2023-01-20T23:31:32.927Z,37.40
2023-01-20T23:37:47.688Z,36.90
2023-01-20T23:43:57.062Z,37.10
2023-01-20T23:50:10.349Z,37.20
2023-01-20T23:56:21.749Z,37.80
